sensor_id;sensor_type;location;lat;lon;timestamp;temperature;humidity
13389;DHT22;6764;53.250;10.410;2023-10-19T00:01:21;8.90;99.90
13389;DHT22;6764;53.250;10.410;2023-10-19T00:03:52;8.90;99.90
13389;DHT22;6764;53.250;10.410;2023-10-19T00:06:18;9.00;99.90
13389;DHT22;6764;53.250;10.410;2023-10-19T00:08:44;9.00;99.90
13389;DHT22;6764;53.250;10.410;2023-10-19T00:11:10;9.00;99.90
13389;DHT22;6764;53.250;10.410;2023-10-19T00:13:47;9.00;99.90
13389;DHT22;6764;53.250;10.410;2023-10-19T00:16:15;8.90;99.90
13389;DHT22;6764;53.250;10.410;2023-10-19T00:18:48;8.90;99.90
13389;DHT22;6764;53.250;10.410;2023-10-19T00:21:15;9.00;99.90
13389;DHT22;6764;53.250;10.410;2023-10-19T00:23:52;8.90;99.90
13389;DHT22;6764;53.250;10.410;2023-10-19T00:26:25;8.90;99.90
13389;DHT22;6764;53.250;10.410;2023-10-19T00:28:52;9.00;99.90
13389;DHT22;6764;53.250;10.410;2023-10-19T00:31:26;8.90;99.90
13389;DHT22;6764;53.250;10.410;2023-10-19T00:33:59;8.90;99.90
13389;DHT22;6764;53.250;10.410;2023-10-19T00:36:26;9.00;99.90
13389;DHT22;6764;53.250;10.410;2023-10-19T00:38:52;9.00;99.90
13389;DHT22;6764;53.250;10.410;2023-10-19T00:41:22;9.00;99.90
13389;DHT22;6764;53.250;10.410;2023-10-19T00:44:00;9.00;99.90
13389;DHT22;6764;53.250;10.410;2023-10-19T00:46:32;9.00;99.90
13389;DHT22;6764;53.250;10.410;2023-10-19T00:49:03;9.00;99.90
13389;DHT22;6764;53.250;10.410;2023-10-19T00:51:41;9.10;99.90
13389;DHT22;6764;53.250;10.410;2023-10-19T00:54:27;9.00;99.90
13389;DHT22;6764;53.250;10.410;2023-10-19T00:57:18;9.00;99.90
13389;DHT22;6764;53.250;10.410;2023-10-19T01:00:04;9.00;99.90
13389;DHT22;6764;53.250;10.410;2023-10-19T01:02:46;9.20;99.90
13389;DHT22;6764;53.250;10.410;2023-10-19T01:05:12;9.00;99.90
13389;DHT22;6764;53.250;10.410;2023-10-19T01:07:47;9.10;99.90
13389;DHT22;6764;53.250;10.410;2023-10-19T01:10:18;9.00;99.90
13389;DHT22;6764;53.250;10.410;2023-10-19T01:12:47;9.10;99.90
13389;DHT22;6764;53.250;10.410;2023-10-19T01:15:18;9.10;99.90
13389;DHT22;6764;53.250;10.410;2023-10-19T01:18:02;9.20;99.90
13389;DHT22;6764;53.250;10.410;2023-10-19T01:20:30;9.20;99.90
13389;DHT22;6764;53.250;10.410;2023-10-19T01:22:56;9.20;99.90
13389;DHT22;6764;53.250;10.410;2023-10-19T01:28:15;9.00;99.90
13389;DHT22;6764;53.250;10.410;2023-10-19T01:30:44;9.10;99.90
13389;DHT22;6764;53.250;10.410;2023-10-19T01:33:10;9.10;99.90
13389;DHT22;6764;53.250;10.410;2023-10-19T01:35:41;9.10;99.90
13389;DHT22;6764;53.250;10.410;2023-10-19T01:38:27;9.10;99.90
13389;DHT22;6764;53.250;10.410;2023-10-19T01:40:56;9.10;99.90
13389;DHT22;6764;53.250;10.410;2023-10-19T01:43:28;9.10;99.90
13389;DHT22;6764;53.250;10.410;2023-10-19T01:45:57;9.20;99.90
13389;DHT22;6764;53.250;10.410;2023-10-19T01:48:24;9.20;99.90
13389;DHT22;6764;53.250;10.410;2023-10-19T01:51:01;9.10;99.90
13389;DHT22;6764;53.250;10.410;2023-10-19T01:53:29;9.10;99.90
13389;DHT22;6764;53.250;10.410;2023-10-19T01:55:55;9.10;99.90
13389;DHT22;6764;53.250;10.410;2023-10-19T01:58:24;9.20;99.90
13389;DHT22;6764;53.250;10.410;2023-10-19T02:00:53;9.10;99.90
13389;DHT22;6764;53.250;10.410;2023-10-19T02:03:26;9.10;99.90
13389;DHT22;6764;53.250;10.410;2023-10-19T02:06:00;9.30;99.90
13389;DHT22;6764;53.250;10.410;2023-10-19T02:08:28;9.30;99.90
13389;DHT22;6764;53.250;10.410;2023-10-19T02:10:54;9.30;99.90
13389;DHT22;6764;53.250;10.410;2023-10-19T02:13:21;9.30;99.90
13389;DHT22;6764;53.250;10.410;2023-10-19T02:15:46;9.30;99.90
13389;DHT22;6764;53.250;10.410;2023-10-19T02:18:12;9.30;99.90
13389;DHT22;6764;53.250;10.410;2023-10-19T02:20:38;9.30;99.90
13389;DHT22;6764;53.250;10.410;2023-10-19T02:23:10;9.30;99.90
13389;DHT22;6764;53.250;10.410;2023-10-19T02:25:37;9.20;99.90
13389;DHT22;6764;53.250;10.410;2023-10-19T02:28:06;9.20;99.90
13389;DHT22;6764;53.250;10.410;2023-10-19T02:30:33;9.20;99.90
13389;DHT22;6764;53.250;10.410;2023-10-19T02:33:00;9.30;99.90
13389;DHT22;6764;53.250;10.410;2023-10-19T02:35:26;9.20;99.90
13389;DHT22;6764;53.250;10.410;2023-10-19T02:37:53;9.20;99.90
13389;DHT22;6764;53.250;10.410;2023-10-19T02:40:19;9.30;99.90
13389;DHT22;6764;53.250;10.410;2023-10-19T02:42:46;9.30;99.90
13389;DHT22;6764;53.250;10.410;2023-10-19T02:45:19;9.20;99.90
13389;DHT22;6764;53.250;10.410;2023-10-19T02:47:45;9.20;99.90
13389;DHT22;6764;53.250;10.410;2023-10-19T02:50:12;9.20;99.90
13389;DHT22;6764;53.250;10.410;2023-10-19T02:52:47;9.20;99.90
13389;DHT22;6764;53.250;10.410;2023-10-19T02:55:13;9.20;99.90
13389;DHT22;6764;53.250;10.410;2023-10-19T02:57:41;9.20;99.90
13389;DHT22;6764;53.250;10.410;2023-10-19T03:00:12;9.10;99.90
13389;DHT22;6764;53.250;10.410;2023-10-19T03:02:40;9.00;99.90
13389;DHT22;6764;53.250;10.410;2023-10-19T03:05:06;9.00;99.90
13389;DHT22;6764;53.250;10.410;2023-10-19T03:07:41;9.00;99.90
13389;DHT22;6764;53.250;10.410;2023-10-19T03:10:10;9.00;99.90
13389;DHT22;6764;53.250;10.410;2023-10-19T03:12:52;8.90;99.90
13389;DHT22;6764;53.250;10.410;2023-10-19T03:15:18;8.90;99.90
13389;DHT22;6764;53.250;10.410;2023-10-19T03:17:47;8.90;99.90
13389;DHT22;6764;53.250;10.410;2023-10-19T03:20:14;8.90;99.90
13389;DHT22;6764;53.250;10.410;2023-10-19T03:22:42;8.90;99.90
13389;DHT22;6764;53.250;10.410;2023-10-19T03:25:09;8.90;99.90
13389;DHT22;6764;53.250;10.410;2023-10-19T03:27:54;8.80;99.90
13389;DHT22;6764;53.250;10.410;2023-10-19T03:30:21;8.80;99.90
13389;DHT22;6764;53.250;10.410;2023-10-19T03:32:50;8.80;99.90
13389;DHT22;6764;53.250;10.410;2023-10-19T03:35:15;8.80;99.90
13389;DHT22;6764;53.250;10.410;2023-10-19T03:37:41;8.80;99.90
13389;DHT22;6764;53.250;10.410;2023-10-19T03:40:08;8.70;99.90
13389;DHT22;6764;53.250;10.410;2023-10-19T03:42:36;8.70;99.90
13389;DHT22;6764;53.250;10.410;2023-10-19T03:45:09;8.70;99.90
13389;DHT22;6764;53.250;10.410;2023-10-19T03:47:39;8.60;99.90
13389;DHT22;6764;53.250;10.410;2023-10-19T03:50:05;8.60;99.90
13389;DHT22;6764;53.250;10.410;2023-10-19T03:52:34;8.60;99.90
13389;DHT22;6764;53.250;10.410;2023-10-19T03:55:03;8.60;99.90
13389;DHT22;6764;53.250;10.410;2023-10-19T03:57:31;8.70;99.90
13389;DHT22;6764;53.250;10.410;2023-10-19T03:59:56;8.60;99.90
13389;DHT22;6764;53.250;10.410;2023-10-19T04:02:23;8.60;99.90
13389;DHT22;6764;53.250;10.410;2023-10-19T04:04:49;8.60;99.90
13389;DHT22;6764;53.250;10.410;2023-10-19T04:07:16;8.60;99.90
13389;DHT22;6764;53.250;10.410;2023-10-19T04:09:48;8.50;99.90
13389;DHT22;6764;53.250;10.410;2023-10-19T04:12:32;8.50;99.90
13389;DHT22;6764;53.250;10.410;2023-10-19T04:15:01;8.50;99.90
13389;DHT22;6764;53.250;10.410;2023-10-19T04:17:46;8.40;99.90
13389;DHT22;6764;53.250;10.410;2023-10-19T04:20:13;8.40;99.90
13389;DHT22;6764;53.250;10.410;2023-10-19T04:22:54;8.30;99.90
13389;DHT22;6764;53.250;10.410;2023-10-19T04:25:20;8.40;99.90
13389;DHT22;6764;53.250;10.410;2023-10-19T04:27:46;8.40;99.90
13389;DHT22;6764;53.250;10.410;2023-10-19T04:30:14;8.50;99.90
13389;DHT22;6764;53.250;10.410;2023-10-19T04:32:49;8.20;99.90
13389;DHT22;6764;53.250;10.410;2023-10-19T04:35:16;8.20;99.90
13389;DHT22;6764;53.250;10.410;2023-10-19T04:37:51;8.20;99.90
13389;DHT22;6764;53.250;10.410;2023-10-19T04:40:18;8.30;99.90
13389;DHT22;6764;53.250;10.410;2023-10-19T04:42:45;8.20;99.90
13389;DHT22;6764;53.250;10.410;2023-10-19T04:45:12;8.20;99.90
13389;DHT22;6764;53.250;10.410;2023-10-19T04:47:38;8.30;99.90
13389;DHT22;6764;53.250;10.410;2023-10-19T04:50:05;8.30;99.90
13389;DHT22;6764;53.250;10.410;2023-10-19T04:52:31;8.30;99.90
13389;DHT22;6764;53.250;10.410;2023-10-19T04:54:58;8.20;99.90
13389;DHT22;6764;53.250;10.410;2023-10-19T04:57:23;8.20;99.90
13389;DHT22;6764;53.250;10.410;2023-10-19T04:59:49;8.20;99.90
13389;DHT22;6764;53.250;10.410;2023-10-19T05:02:15;8.20;99.90
13389;DHT22;6764;53.250;10.410;2023-10-19T05:04:42;8.30;99.90
13389;DHT22;6764;53.250;10.410;2023-10-19T05:07:11;8.20;99.90
13389;DHT22;6764;53.250;10.410;2023-10-19T05:09:38;8.20;99.90
13389;DHT22;6764;53.250;10.410;2023-10-19T05:12:07;8.20;99.90
13389;DHT22;6764;53.250;10.410;2023-10-19T05:14:38;8.30;99.90
13389;DHT22;6764;53.250;10.410;2023-10-19T05:17:05;8.40;99.90
13389;DHT22;6764;53.250;10.410;2023-10-19T05:19:34;8.30;99.90
13389;DHT22;6764;53.250;10.410;2023-10-19T05:22:01;8.40;99.90
13389;DHT22;6764;53.250;10.410;2023-10-19T05:24:28;8.40;99.90
13389;DHT22;6764;53.250;10.410;2023-10-19T05:26:54;8.30;99.90
13389;DHT22;6764;53.250;10.410;2023-10-19T05:29:20;8.20;99.90
13389;DHT22;6764;53.250;10.410;2023-10-19T05:31:46;8.20;99.90
13389;DHT22;6764;53.250;10.410;2023-10-19T05:34:12;8.00;99.90
13389;DHT22;6764;53.250;10.410;2023-10-19T05:36:38;8.10;99.90
13389;DHT22;6764;53.250;10.410;2023-10-19T05:39:05;8.10;99.90
13389;DHT22;6764;53.250;10.410;2023-10-19T05:41:33;8.20;99.90
13389;DHT22;6764;53.250;10.410;2023-10-19T05:44:04;8.10;99.90
13389;DHT22;6764;53.250;10.410;2023-10-19T05:46:29;8.10;99.90
13389;DHT22;6764;53.250;10.410;2023-10-19T05:48:56;8.20;99.90
13389;DHT22;6764;53.250;10.410;2023-10-19T05:51:23;8.20;99.90
13389;DHT22;6764;53.250;10.410;2023-10-19T05:53:49;8.10;99.90
13389;DHT22;6764;53.250;10.410;2023-10-19T05:56:16;8.10;99.90
13389;DHT22;6764;53.250;10.410;2023-10-19T05:58:43;8.20;99.90
13389;DHT22;6764;53.250;10.410;2023-10-19T06:01:08;8.30;99.90
13389;DHT22;6764;53.250;10.410;2023-10-19T06:03:34;8.30;99.90
13389;DHT22;6764;53.250;10.410;2023-10-19T06:06:00;8.30;99.90
13389;DHT22;6764;53.250;10.410;2023-10-19T06:08:25;8.20;99.90
13389;DHT22;6764;53.250;10.410;2023-10-19T06:10:52;8.20;99.90
13389;DHT22;6764;53.250;10.410;2023-10-19T06:13:18;8.20;99.90
13389;DHT22;6764;53.250;10.410;2023-10-19T06:15:44;8.30;99.90
13389;DHT22;6764;53.250;10.410;2023-10-19T06:18:10;8.30;99.90
13389;DHT22;6764;53.250;10.410;2023-10-19T06:20:36;8.20;99.90
13389;DHT22;6764;53.250;10.410;2023-10-19T06:23:02;8.20;99.90
13389;DHT22;6764;53.250;10.410;2023-10-19T06:25:32;8.30;99.90
13389;DHT22;6764;53.250;10.410;2023-10-19T06:28:00;8.30;99.90
13389;DHT22;6764;53.250;10.410;2023-10-19T06:30:27;8.30;99.90
13389;DHT22;6764;53.250;10.410;2023-10-19T06:32:59;8.30;99.90
13389;DHT22;6764;53.250;10.410;2023-10-19T06:35:30;8.30;99.90
13389;DHT22;6764;53.250;10.410;2023-10-19T06:37:57;8.40;99.90
13389;DHT22;6764;53.250;10.410;2023-10-19T06:40:24;8.40;99.90
13389;DHT22;6764;53.250;10.410;2023-10-19T06:42:54;8.40;99.90
13389;DHT22;6764;53.250;10.410;2023-10-19T06:45:21;8.40;99.90
13389;DHT22;6764;53.250;10.410;2023-10-19T06:47:47;8.40;99.90
13389;DHT22;6764;53.250;10.410;2023-10-19T06:50:15;8.50;99.90
13389;DHT22;6764;53.250;10.410;2023-10-19T06:52:44;8.50;99.90
13389;DHT22;6764;53.250;10.410;2023-10-19T06:55:12;8.50;99.90
13389;DHT22;6764;53.250;10.410;2023-10-19T06:57:52;8.50;99.90
13389;DHT22;6764;53.250;10.410;2023-10-19T07:00:20;8.60;99.90
13389;DHT22;6764;53.250;10.410;2023-10-19T07:02:51;8.60;99.90
13389;DHT22;6764;53.250;10.410;2023-10-19T07:05:17;8.60;99.90
13389;DHT22;6764;53.250;10.410;2023-10-19T07:07:48;8.60;99.90
13389;DHT22;6764;53.250;10.410;2023-10-19T07:10:18;8.60;99.90
13389;DHT22;6764;53.250;10.410;2023-10-19T07:12:45;8.60;99.90
13389;DHT22;6764;53.250;10.410;2023-10-19T07:15:15;8.50;99.90
13389;DHT22;6764;53.250;10.410;2023-10-19T07:17:44;8.50;99.90
13389;DHT22;6764;53.250;10.410;2023-10-19T07:20:11;8.50;99.90
13389;DHT22;6764;53.250;10.410;2023-10-19T07:23:00;8.50;99.90
13389;DHT22;6764;53.250;10.410;2023-10-19T07:25:34;8.50;99.90
13389;DHT22;6764;53.250;10.410;2023-10-19T07:28:11;8.50;99.90
13389;DHT22;6764;53.250;10.410;2023-10-19T07:30:38;8.50;99.90
13389;DHT22;6764;53.250;10.410;2023-10-19T07:33:04;8.50;99.90
13389;DHT22;6764;53.250;10.410;2023-10-19T07:35:34;8.50;99.90
13389;DHT22;6764;53.250;10.410;2023-10-19T07:38:03;8.60;99.90
13389;DHT22;6764;53.250;10.410;2023-10-19T07:40:29;8.50;99.90
13389;DHT22;6764;53.250;10.410;2023-10-19T07:42:55;8.40;99.90
13389;DHT22;6764;53.250;10.410;2023-10-19T07:45:21;8.40;99.90
13389;DHT22;6764;53.250;10.410;2023-10-19T07:47:47;8.40;99.90
13389;DHT22;6764;53.250;10.410;2023-10-19T07:50:14;8.50;99.90
13389;DHT22;6764;53.250;10.410;2023-10-19T07:52:47;8.50;99.90
13389;DHT22;6764;53.250;10.410;2023-10-19T07:55:14;8.60;99.90
13389;DHT22;6764;53.250;10.410;2023-10-19T07:57:41;8.60;99.90
13389;DHT22;6764;53.250;10.410;2023-10-19T08:00:07;8.60;99.90
13389;DHT22;6764;53.250;10.410;2023-10-19T08:02:34;8.70;99.90
13389;DHT22;6764;53.250;10.410;2023-10-19T08:05:00;8.60;99.90
13389;DHT22;6764;53.250;10.410;2023-10-19T08:07:29;8.60;99.90
13389;DHT22;6764;53.250;10.410;2023-10-19T08:09:54;8.50;99.90
13389;DHT22;6764;53.250;10.410;2023-10-19T08:12:22;8.50;99.90
13389;DHT22;6764;53.250;10.410;2023-10-19T08:14:48;8.60;99.90
13389;DHT22;6764;53.250;10.410;2023-10-19T08:17:14;8.60;99.90
13389;DHT22;6764;53.250;10.410;2023-10-19T08:19:40;8.60;99.90
13389;DHT22;6764;53.250;10.410;2023-10-19T08:22:06;8.60;99.90
13389;DHT22;6764;53.250;10.410;2023-10-19T08:24:32;8.50;99.90
13389;DHT22;6764;53.250;10.410;2023-10-19T08:27:00;8.60;99.90
13389;DHT22;6764;53.250;10.410;2023-10-19T08:29:26;8.70;99.90
13389;DHT22;6764;53.250;10.410;2023-10-19T08:31:52;8.70;99.90
13389;DHT22;6764;53.250;10.410;2023-10-19T08:34:17;8.80;99.90
13389;DHT22;6764;53.250;10.410;2023-10-19T08:36:44;8.80;99.90
13389;DHT22;6764;53.250;10.410;2023-10-19T08:39:10;8.90;99.90
13389;DHT22;6764;53.250;10.410;2023-10-19T08:41:39;9.00;99.90
13389;DHT22;6764;53.250;10.410;2023-10-19T08:44:07;9.00;99.90
13389;DHT22;6764;53.250;10.410;2023-10-19T08:46:45;9.00;99.90
13389;DHT22;6764;53.250;10.410;2023-10-19T08:49:13;9.10;99.90
13389;DHT22;6764;53.250;10.410;2023-10-19T08:51:40;9.10;99.90
13389;DHT22;6764;53.250;10.410;2023-10-19T08:54:08;9.20;99.90
13389;DHT22;6764;53.250;10.410;2023-10-19T08:56:36;9.10;99.90
13389;DHT22;6764;53.250;10.410;2023-10-19T08:59:02;9.00;99.90
13389;DHT22;6764;53.250;10.410;2023-10-19T09:01:28;8.90;99.90
13389;DHT22;6764;53.250;10.410;2023-10-19T09:04:01;9.00;99.90
13389;DHT22;6764;53.250;10.410;2023-10-19T09:06:27;8.90;99.90
13389;DHT22;6764;53.250;10.410;2023-10-19T09:08:55;8.90;99.90
13389;DHT22;6764;53.250;10.410;2023-10-19T09:11:21;8.80;99.90
13389;DHT22;6764;53.250;10.410;2023-10-19T09:13:48;8.90;99.90
13389;DHT22;6764;53.250;10.410;2023-10-19T09:16:19;8.90;99.90
13389;DHT22;6764;53.250;10.410;2023-10-19T09:18:50;8.80;99.90
13389;DHT22;6764;53.250;10.410;2023-10-19T09:21:20;8.80;99.90
13389;DHT22;6764;53.250;10.410;2023-10-19T09:23:57;8.90;99.90
13389;DHT22;6764;53.250;10.410;2023-10-19T09:26:24;8.90;99.90
13389;DHT22;6764;53.250;10.410;2023-10-19T09:28:51;8.90;99.90
13389;DHT22;6764;53.250;10.410;2023-10-19T09:31:18;8.90;99.90
13389;DHT22;6764;53.250;10.410;2023-10-19T09:33:45;8.90;99.90
13389;DHT22;6764;53.250;10.410;2023-10-19T09:36:12;9.00;99.90
13389;DHT22;6764;53.250;10.410;2023-10-19T09:38:49;8.90;99.90
13389;DHT22;6764;53.250;10.410;2023-10-19T09:41:20;8.90;99.90
13389;DHT22;6764;53.250;10.410;2023-10-19T09:43:50;8.90;99.90
13389;DHT22;6764;53.250;10.410;2023-10-19T09:46:21;8.90;99.90
13389;DHT22;6764;53.250;10.410;2023-10-19T09:48:48;8.80;99.90
13389;DHT22;6764;53.250;10.410;2023-10-19T09:51:15;8.90;99.90
13389;DHT22;6764;53.250;10.410;2023-10-19T09:54:31;8.80;99.90
13389;DHT22;6764;53.250;10.410;2023-10-19T09:56:41;8.90;99.90
13389;DHT22;6764;53.250;10.410;2023-10-19T09:59:20;8.80;99.90
13389;DHT22;6764;53.250;10.410;2023-10-19T10:02:10;8.80;99.90
13389;DHT22;6764;53.250;10.410;2023-10-19T10:04:39;8.90;99.90
13389;DHT22;6764;53.250;10.410;2023-10-19T10:07:06;8.80;99.90
13389;DHT22;6764;53.250;10.410;2023-10-19T10:09:39;8.80;99.90
13389;DHT22;6764;53.250;10.410;2023-10-19T10:12:19;8.80;99.90
13389;DHT22;6764;53.250;10.410;2023-10-19T10:14:59;8.80;99.90
13389;DHT22;6764;53.250;10.410;2023-10-19T10:17:27;8.80;99.90
13389;DHT22;6764;53.250;10.410;2023-10-19T10:22:38;8.80;99.90
13389;DHT22;6764;53.250;10.410;2023-10-19T10:25:04;8.80;99.90
13389;DHT22;6764;53.250;10.410;2023-10-19T10:27:30;8.90;99.90
13389;DHT22;6764;53.250;10.410;2023-10-19T10:29:59;8.80;99.90
13389;DHT22;6764;53.250;10.410;2023-10-19T10:32:46;8.90;99.90
13389;DHT22;6764;53.250;10.410;2023-10-19T10:38:10;8.90;99.90
13389;DHT22;6764;53.250;10.410;2023-10-19T10:40:49;8.80;99.90
13389;DHT22;6764;53.250;10.410;2023-10-19T10:43:17;8.80;99.90
13389;DHT22;6764;53.250;10.410;2023-10-19T10:45:43;8.80;99.90
13389;DHT22;6764;53.250;10.410;2023-10-19T10:48:13;8.90;99.90
13389;DHT22;6764;53.250;10.410;2023-10-19T10:50:38;8.80;99.90
13389;DHT22;6764;53.250;10.410;2023-10-19T10:53:05;8.80;99.90
13389;DHT22;6764;53.250;10.410;2023-10-19T10:55:31;8.80;99.90
13389;DHT22;6764;53.250;10.410;2023-10-19T10:57:58;8.80;99.90
13389;DHT22;6764;53.250;10.410;2023-10-19T11:00:25;8.90;99.90
13389;DHT22;6764;53.250;10.410;2023-10-19T11:03:03;8.80;99.90
13389;DHT22;6764;53.250;10.410;2023-10-19T11:05:38;8.70;99.90
13389;DHT22;6764;53.250;10.410;2023-10-19T11:08:07;8.70;99.90
13389;DHT22;6764;53.250;10.410;2023-10-19T11:10:44;8.70;99.90
13389;DHT22;6764;53.250;10.410;2023-10-19T11:13:17;8.80;99.90
13389;DHT22;6764;53.250;10.410;2023-10-19T11:15:53;8.80;99.90
13389;DHT22;6764;53.250;10.410;2023-10-19T11:20:55;8.90;99.90
13389;DHT22;6764;53.250;10.410;2023-10-19T11:23:35;8.90;99.90
13389;DHT22;6764;53.250;10.410;2023-10-19T11:26:01;8.80;99.90
13389;DHT22;6764;53.250;10.410;2023-10-19T11:28:28;8.80;99.90
13389;DHT22;6764;53.250;10.410;2023-10-19T11:31:00;8.90;99.90
13389;DHT22;6764;53.250;10.410;2023-10-19T11:33:35;8.90;99.90
13389;DHT22;6764;53.250;10.410;2023-10-19T11:36:02;8.80;99.90
13389;DHT22;6764;53.250;10.410;2023-10-19T11:38:27;8.90;99.90
13389;DHT22;6764;53.250;10.410;2023-10-19T11:40:53;8.90;99.90
13389;DHT22;6764;53.250;10.410;2023-10-19T11:43:19;8.90;99.90
13389;DHT22;6764;53.250;10.410;2023-10-19T11:45:44;8.90;99.90
13389;DHT22;6764;53.250;10.410;2023-10-19T11:48:11;8.80;99.90
13389;DHT22;6764;53.250;10.410;2023-10-19T11:50:37;8.80;99.90
13389;DHT22;6764;53.250;10.410;2023-10-19T11:53:02;8.80;99.90
13389;DHT22;6764;53.250;10.410;2023-10-19T11:55:28;8.80;99.90
13389;DHT22;6764;53.250;10.410;2023-10-19T11:57:54;8.80;99.90
13389;DHT22;6764;53.250;10.410;2023-10-19T12:00:20;8.80;99.90
13389;DHT22;6764;53.250;10.410;2023-10-19T12:02:47;8.80;99.90
13389;DHT22;6764;53.250;10.410;2023-10-19T12:05:13;8.90;99.90
13389;DHT22;6764;53.250;10.410;2023-10-19T12:07:39;8.80;99.90
13389;DHT22;6764;53.250;10.410;2023-10-19T12:10:09;8.80;99.90
13389;DHT22;6764;53.250;10.410;2023-10-19T12:12:36;8.70;99.90
13389;DHT22;6764;53.250;10.410;2023-10-19T12:15:03;8.80;99.90
13389;DHT22;6764;53.250;10.410;2023-10-19T12:17:31;8.80;99.90
13389;DHT22;6764;53.250;10.410;2023-10-19T12:19:56;8.70;99.90
13389;DHT22;6764;53.250;10.410;2023-10-19T12:22:22;8.70;99.90
13389;DHT22;6764;53.250;10.410;2023-10-19T12:24:49;8.70;99.90
13389;DHT22;6764;53.250;10.410;2023-10-19T12:27:17;8.80;99.90
13389;DHT22;6764;53.250;10.410;2023-10-19T12:29:43;8.90;99.90
13389;DHT22;6764;53.250;10.410;2023-10-19T12:32:09;8.90;99.90
13389;DHT22;6764;53.250;10.410;2023-10-19T12:34:35;8.90;99.90
13389;DHT22;6764;53.250;10.410;2023-10-19T12:37:00;8.80;99.90
13389;DHT22;6764;53.250;10.410;2023-10-19T12:39:27;8.80;99.90
13389;DHT22;6764;53.250;10.410;2023-10-19T12:42:10;8.80;99.90
13389;DHT22;6764;53.250;10.410;2023-10-19T12:44:36;8.80;99.90
13389;DHT22;6764;53.250;10.410;2023-10-19T12:47:05;8.80;99.90
13389;DHT22;6764;53.250;10.410;2023-10-19T12:49:36;8.80;99.90
13389;DHT22;6764;53.250;10.410;2023-10-19T12:52:01;8.80;99.90
13389;DHT22;6764;53.250;10.410;2023-10-19T12:54:29;8.80;99.90
13389;DHT22;6764;53.250;10.410;2023-10-19T12:56:55;8.70;99.90
13389;DHT22;6764;53.250;10.410;2023-10-19T12:59:21;8.70;99.90
13389;DHT22;6764;53.250;10.410;2023-10-19T13:01:48;8.70;99.90
13389;DHT22;6764;53.250;10.410;2023-10-19T13:04:17;8.80;99.90
13389;DHT22;6764;53.250;10.410;2023-10-19T13:06:44;8.80;99.90
13389;DHT22;6764;53.250;10.410;2023-10-19T13:09:12;8.80;99.90
13389;DHT22;6764;53.250;10.410;2023-10-19T13:11:41;8.90;99.90
13389;DHT22;6764;53.250;10.410;2023-10-19T13:14:09;8.90;99.90
13389;DHT22;6764;53.250;10.410;2023-10-19T13:16:35;8.90;99.90
13389;DHT22;6764;53.250;10.410;2023-10-19T13:19:01;8.80;99.90
13389;DHT22;6764;53.250;10.410;2023-10-19T13:21:34;8.80;99.90
13389;DHT22;6764;53.250;10.410;2023-10-19T13:24:00;8.70;99.90
13389;DHT22;6764;53.250;10.410;2023-10-19T13:26:27;8.70;99.90
13389;DHT22;6764;53.250;10.410;2023-10-19T13:28:53;8.70;99.90
13389;DHT22;6764;53.250;10.410;2023-10-19T13:31:20;8.80;99.90
13389;DHT22;6764;53.250;10.410;2023-10-19T13:33:47;8.80;99.90
13389;DHT22;6764;53.250;10.410;2023-10-19T13:36:13;8.90;99.90
13389;DHT22;6764;53.250;10.410;2023-10-19T13:38:39;8.90;99.90
13389;DHT22;6764;53.250;10.410;2023-10-19T13:41:05;8.80;99.90
13389;DHT22;6764;53.250;10.410;2023-10-19T13:43:35;8.90;99.90
13389;DHT22;6764;53.250;10.410;2023-10-19T13:46:01;8.80;99.90
13389;DHT22;6764;53.250;10.410;2023-10-19T13:48:27;8.90;99.90
13389;DHT22;6764;53.250;10.410;2023-10-19T13:50:53;8.80;99.90
13389;DHT22;6764;53.250;10.410;2023-10-19T13:53:26;8.80;99.90
13389;DHT22;6764;53.250;10.410;2023-10-19T13:55:52;8.70;99.90
13389;DHT22;6764;53.250;10.410;2023-10-19T13:58:18;8.80;99.90
13389;DHT22;6764;53.250;10.410;2023-10-19T14:00:43;8.80;99.90
13389;DHT22;6764;53.250;10.410;2023-10-19T14:03:13;8.80;99.90
13389;DHT22;6764;53.250;10.410;2023-10-19T14:05:43;8.80;99.90
13389;DHT22;6764;53.250;10.410;2023-10-19T14:08:13;8.80;99.90
13389;DHT22;6764;53.250;10.410;2023-10-19T14:10:39;8.90;99.90
13389;DHT22;6764;53.250;10.410;2023-10-19T14:13:07;8.90;99.90
13389;DHT22;6764;53.250;10.410;2023-10-19T14:15:33;8.90;99.90
13389;DHT22;6764;53.250;10.410;2023-10-19T14:18:00;8.90;99.90
13389;DHT22;6764;53.250;10.410;2023-10-19T14:20:29;9.00;99.90
13389;DHT22;6764;53.250;10.410;2023-10-19T14:22:55;8.90;99.90
13389;DHT22;6764;53.250;10.410;2023-10-19T14:25:21;9.00;99.90
13389;DHT22;6764;53.250;10.410;2023-10-19T14:27:52;9.00;99.90
13389;DHT22;6764;53.250;10.410;2023-10-19T14:30:24;9.00;99.90
13389;DHT22;6764;53.250;10.410;2023-10-19T14:32:50;9.00;99.90
13389;DHT22;6764;53.250;10.410;2023-10-19T14:35:21;9.10;99.90
13389;DHT22;6764;53.250;10.410;2023-10-19T14:37:48;9.00;99.90
13389;DHT22;6764;53.250;10.410;2023-10-19T14:40:22;9.00;99.90
13389;DHT22;6764;53.250;10.410;2023-10-19T14:42:49;9.10;99.90
13389;DHT22;6764;53.250;10.410;2023-10-19T14:45:17;8.90;99.90
13389;DHT22;6764;53.250;10.410;2023-10-19T14:47:50;8.90;99.90
13389;DHT22;6764;53.250;10.410;2023-10-19T14:50:22;8.90;99.90
13389;DHT22;6764;53.250;10.410;2023-10-19T14:52:50;8.90;99.90
13389;DHT22;6764;53.250;10.410;2023-10-19T14:55:17;9.00;99.90
13389;DHT22;6764;53.250;10.410;2023-10-19T14:57:44;9.00;99.90
13389;DHT22;6764;53.250;10.410;2023-10-19T15:00:19;9.00;99.90
13389;DHT22;6764;53.250;10.410;2023-10-19T15:02:58;9.00;99.90
13389;DHT22;6764;53.250;10.410;2023-10-19T15:05:27;9.00;99.90
13389;DHT22;6764;53.250;10.410;2023-10-19T15:07:54;9.00;99.90
13389;DHT22;6764;53.250;10.410;2023-10-19T15:10:23;9.00;99.90
13389;DHT22;6764;53.250;10.410;2023-10-19T15:12:50;9.00;99.90
13389;DHT22;6764;53.250;10.410;2023-10-19T15:15:16;9.10;99.90
13389;DHT22;6764;53.250;10.410;2023-10-19T15:17:46;9.10;99.90
13389;DHT22;6764;53.250;10.410;2023-10-19T15:20:14;9.00;99.90
13389;DHT22;6764;53.250;10.410;2023-10-19T15:22:41;8.90;99.90
13389;DHT22;6764;53.250;10.410;2023-10-19T15:25:07;8.90;99.90
13389;DHT22;6764;53.250;10.410;2023-10-19T15:27:34;8.90;99.90
13389;DHT22;6764;53.250;10.410;2023-10-19T15:30:00;8.90;99.90
13389;DHT22;6764;53.250;10.410;2023-10-19T15:32:26;8.80;99.90
13389;DHT22;6764;53.250;10.410;2023-10-19T15:34:51;8.80;99.90
13389;DHT22;6764;53.250;10.410;2023-10-19T15:37:18;8.90;99.90
13389;DHT22;6764;53.250;10.410;2023-10-19T15:39:44;8.90;99.90
13389;DHT22;6764;53.250;10.410;2023-10-19T15:42:10;8.90;99.90
13389;DHT22;6764;53.250;10.410;2023-10-19T15:44:39;8.90;99.90
13389;DHT22;6764;53.250;10.410;2023-10-19T15:47:05;9.00;99.90
13389;DHT22;6764;53.250;10.410;2023-10-19T15:49:55;9.00;99.90
13389;DHT22;6764;53.250;10.410;2023-10-19T15:52:26;9.00;99.90
13389;DHT22;6764;53.250;10.410;2023-10-19T15:54:57;9.00;99.90
13389;DHT22;6764;53.250;10.410;2023-10-19T15:57:23;8.90;99.90
13389;DHT22;6764;53.250;10.410;2023-10-19T15:59:50;9.00;99.90
13389;DHT22;6764;53.250;10.410;2023-10-19T16:02:16;8.90;99.90
13389;DHT22;6764;53.250;10.410;2023-10-19T16:04:44;8.90;99.90
13389;DHT22;6764;53.250;10.410;2023-10-19T16:07:14;8.90;99.90